Terminal Aerodrome Forecast
Issued by NWS

Home | Current Version | Previous Version | Text Only | Print | Product List | Glossary On
Versions: 1 2 3 4 5 6 7 8 9 10 11 12 13 14 15 16 17 18 19 20 21 22 23 24 25 26 27 28 29 30 31 32 33 34 35 36 37 38 39 40 41 42 43 44 45 46 47 48 49 50
000
FTUS44 KHGX 260520
TAFCXO
TAF
KCXO 260520Z 2606/2706 VRB04KT P6SM SKC
      TEMPO 2609/2613 3SM BR BKN015
     FM261500 07003KT P6SM FEW035 BKN150
     FM261800 11003KT P6SM BKN250
      TEMPO 2619/2623 VRB20KT 2SM TSRA BKN030CB
     FM270300 12003KT P6SM FEW030 SCT060 OVC150=

USA.gov is the U.S. government's official web portal to all federal, state and local government web resources and services.